sensor_id;sensor_type;location;lat;lon;timestamp;pressure;altitude;pressure_sealevel;temperature;humidity
54308;BME280;40208;39.778;2.710;2023-04-23T00:02:32;101021.78;;;16.37;100.00
54308;BME280;40208;39.778;2.710;2023-04-23T00:05:19;101051.25;;;16.64;100.00
54308;BME280;40208;39.778;2.710;2023-04-23T00:08:04;101035.91;;;16.11;100.00
54308;BME280;40208;39.778;2.710;2023-04-23T00:10:50;101074.06;;;16.15;100.00
54308;BME280;40208;39.778;2.710;2023-04-23T00:13:35;101020.06;;;15.65;100.00
54308;BME280;40208;39.778;2.710;2023-04-23T00:16:20;101037.31;;;15.76;100.00
54308;BME280;40208;39.778;2.710;2023-04-23T00:19:05;101070.03;;;16.22;100.00
54308;BME280;40208;39.778;2.710;2023-04-23T00:21:50;101027.72;;;16.00;100.00
54308;BME280;40208;39.778;2.710;2023-04-23T00:24:35;101012.34;;;15.75;100.00
54308;BME280;40208;39.778;2.710;2023-04-23T00:27:22;101090.34;;;16.39;100.00
54308;BME280;40208;39.778;2.710;2023-04-23T00:30:07;101087.81;;;16.38;100.00
54308;BME280;40208;39.778;2.710;2023-04-23T00:32:52;101097.25;;;16.43;100.00
54308;BME280;40208;39.778;2.710;2023-04-23T00:35:37;101097.63;;;16.37;100.00
54308;BME280;40208;39.778;2.710;2023-04-23T00:38:22;100992.94;;;15.72;100.00
54308;BME280;40208;39.778;2.710;2023-04-23T00:41:07;100997.31;;;15.58;100.00
54308;BME280;40208;39.778;2.710;2023-04-23T00:43:53;101061.00;;;15.82;100.00
54308;BME280;40208;39.778;2.710;2023-04-23T00:46:38;100970.16;;;14.93;100.00
54308;BME280;40208;39.778;2.710;2023-04-23T00:49:23;101045.25;;;15.33;100.00
54308;BME280;40208;39.778;2.710;2023-04-23T00:52:08;101088.72;;;15.81;100.00
54308;BME280;40208;39.778;2.710;2023-04-23T00:54:54;100974.47;;;15.10;100.00
54308;BME280;40208;39.778;2.710;2023-04-23T00:57:39;101065.13;;;15.73;100.00
54308;BME280;40208;39.778;2.710;2023-04-23T01:00:24;100927.97;;;14.98;100.00
54308;BME280;40208;39.778;2.710;2023-04-23T01:03:09;101062.81;;;15.81;100.00
54308;BME280;40208;39.778;2.710;2023-04-23T01:05:55;101016.25;;;15.41;100.00
54308;BME280;40208;39.778;2.710;2023-04-23T01:08:41;101014.41;;;15.27;100.00
54308;BME280;40208;39.778;2.710;2023-04-23T01:11:27;101082.38;;;15.67;100.00
54308;BME280;40208;39.778;2.710;2023-04-23T01:14:12;101007.78;;;15.18;100.00
54308;BME280;40208;39.778;2.710;2023-04-23T01:16:57;101025.94;;;15.13;100.00
54308;BME280;40208;39.778;2.710;2023-04-23T01:19:42;101048.28;;;15.12;100.00
54308;BME280;40208;39.778;2.710;2023-04-23T01:22:27;101094.38;;;15.46;100.00
54308;BME280;40208;39.778;2.710;2023-04-23T01:25:12;101014.53;;;14.95;100.00
54308;BME280;40208;39.778;2.710;2023-04-23T01:27:57;101024.69;;;14.74;100.00
54308;BME280;40208;39.778;2.710;2023-04-23T01:30:42;101011.53;;;14.71;100.00
54308;BME280;40208;39.778;2.710;2023-04-23T01:33:28;101091.28;;;15.23;100.00
54308;BME280;40208;39.778;2.710;2023-04-23T01:36:13;101031.34;;;14.97;100.00
54308;BME280;40208;39.778;2.710;2023-04-23T01:38:59;100881.22;;;14.30;100.00
54308;BME280;40208;39.778;2.710;2023-04-23T01:41:45;101086.16;;;15.63;100.00
54308;BME280;40208;39.778;2.710;2023-04-23T01:44:31;101022.94;;;15.03;100.00
54308;BME280;40208;39.778;2.710;2023-04-23T01:47:16;100969.63;;;14.72;100.00
54308;BME280;40208;39.778;2.710;2023-04-23T01:50:01;101012.09;;;14.76;100.00
54308;BME280;40208;39.778;2.710;2023-04-23T01:52:47;101084.84;;;15.12;100.00
54308;BME280;40208;39.778;2.710;2023-04-23T01:55:33;101094.59;;;15.13;100.00
54308;BME280;40208;39.778;2.710;2023-04-23T01:58:22;101036.00;;;14.63;100.00
54308;BME280;40208;39.778;2.710;2023-04-23T02:01:07;101045.63;;;14.66;100.00
54308;BME280;40208;39.778;2.710;2023-04-23T02:03:53;101071.81;;;14.75;100.00
54308;BME280;40208;39.778;2.710;2023-04-23T02:06:38;101060.19;;;14.76;100.00
54308;BME280;40208;39.778;2.710;2023-04-23T02:09:23;101042.88;;;14.52;100.00
54308;BME280;40208;39.778;2.710;2023-04-23T02:12:08;101000.84;;;14.39;100.00
54308;BME280;40208;39.778;2.710;2023-04-23T02:14:53;100979.41;;;14.41;100.00
54308;BME280;40208;39.778;2.710;2023-04-23T02:17:38;100942.56;;;14.16;100.00
54308;BME280;40208;39.778;2.710;2023-04-23T02:20:25;100918.72;;;14.29;100.00
54308;BME280;40208;39.778;2.710;2023-04-23T02:23:10;100964.31;;;14.40;100.00
54308;BME280;40208;39.778;2.710;2023-04-23T02:25:55;100997.25;;;14.40;100.00
54308;BME280;40208;39.778;2.710;2023-04-23T02:28:40;100979.16;;;14.46;100.00
54308;BME280;40208;39.778;2.710;2023-04-23T02:31:25;100876.56;;;14.04;100.00
54308;BME280;40208;39.778;2.710;2023-04-23T02:34:10;100987.63;;;14.68;100.00
54308;BME280;40208;39.778;2.710;2023-04-23T02:36:55;101043.13;;;15.09;100.00
54308;BME280;40208;39.778;2.710;2023-04-23T02:39:40;100989.44;;;14.52;100.00
54308;BME280;40208;39.778;2.710;2023-04-23T02:42:25;101075.69;;;15.16;100.00
54308;BME280;40208;39.778;2.710;2023-04-23T02:45:10;101082.69;;;15.33;100.00
54308;BME280;40208;39.778;2.710;2023-04-23T02:48:01;101095.50;;;15.42;100.00
54308;BME280;40208;39.778;2.710;2023-04-23T02:50:52;101050.28;;;15.23;100.00
54308;BME280;40208;39.778;2.710;2023-04-23T02:53:43;101017.53;;;15.05;100.00
54308;BME280;40208;39.778;2.710;2023-04-23T02:56:34;101021.84;;;15.22;100.00
54308;BME280;40208;39.778;2.710;2023-04-23T02:59:25;101083.69;;;15.60;100.00
54308;BME280;40208;39.778;2.710;2023-04-23T03:02:16;100966.88;;;14.88;100.00
54308;BME280;40208;39.778;2.710;2023-04-23T03:05:08;101105.00;;;15.62;100.00
54308;BME280;40208;39.778;2.710;2023-04-23T03:07:59;101004.41;;;14.86;100.00
54308;BME280;40208;39.778;2.710;2023-04-23T03:10:50;101083.88;;;15.43;100.00
54308;BME280;40208;39.778;2.710;2023-04-23T03:13:41;100991.03;;;14.86;100.00
54308;BME280;40208;39.778;2.710;2023-04-23T03:16:32;101104.44;;;15.57;100.00
54308;BME280;40208;39.778;2.710;2023-04-23T03:19:23;101018.38;;;15.05;100.00
54308;BME280;40208;39.778;2.710;2023-04-23T03:22:14;100954.81;;;14.66;100.00
54308;BME280;40208;39.778;2.710;2023-04-23T03:25:06;101015.75;;;14.90;100.00
54308;BME280;40208;39.778;2.710;2023-04-23T03:27:56;101058.44;;;15.21;100.00
54308;BME280;40208;39.778;2.710;2023-04-23T03:30:47;100988.47;;;14.99;100.00
54308;BME280;40208;39.778;2.710;2023-04-23T03:33:38;101085.03;;;15.53;100.00
54308;BME280;40208;39.778;2.710;2023-04-23T03:36:30;101048.88;;;15.17;100.00
54308;BME280;40208;39.778;2.710;2023-04-23T03:39:21;101001.75;;;15.00;100.00
54308;BME280;40208;39.778;2.710;2023-04-23T03:42:12;101097.06;;;15.60;100.00
54308;BME280;40208;39.778;2.710;2023-04-23T03:45:04;101071.63;;;15.39;100.00
54308;BME280;40208;39.778;2.710;2023-04-23T03:47:55;101096.88;;;15.63;100.00
54308;BME280;40208;39.778;2.710;2023-04-23T03:50:46;101012.16;;;14.91;100.00
54308;BME280;40208;39.778;2.710;2023-04-23T03:53:37;100983.72;;;14.59;100.00
54308;BME280;40208;39.778;2.710;2023-04-23T03:56:28;101107.69;;;15.17;100.00
54308;BME280;40208;39.778;2.710;2023-04-23T03:59:19;101063.25;;;15.00;100.00
54308;BME280;40208;39.778;2.710;2023-04-23T04:02:10;101080.59;;;14.93;100.00
54308;BME280;40208;39.778;2.710;2023-04-23T04:05:01;101041.31;;;14.79;100.00
54308;BME280;40208;39.778;2.710;2023-04-23T04:07:53;101067.69;;;14.86;100.00
54308;BME280;40208;39.778;2.710;2023-04-23T04:10:44;101059.66;;;14.86;100.00
54308;BME280;40208;39.778;2.710;2023-04-23T04:13:37;101070.78;;;14.78;100.00
54308;BME280;40208;39.778;2.710;2023-04-23T04:16:27;101006.22;;;14.55;100.00
54308;BME280;40208;39.778;2.710;2023-04-23T04:19:19;101058.56;;;15.04;100.00
54308;BME280;40208;39.778;2.710;2023-04-23T04:22:10;101042.47;;;14.90;100.00
54308;BME280;40208;39.778;2.710;2023-04-23T04:25:02;100949.00;;;14.43;100.00
54308;BME280;40208;39.778;2.710;2023-04-23T04:27:54;100990.78;;;14.60;100.00
54308;BME280;40208;39.778;2.710;2023-04-23T04:30:47;101011.22;;;14.76;100.00
54308;BME280;40208;39.778;2.710;2023-04-23T04:33:39;101016.63;;;14.90;100.00
54308;BME280;40208;39.778;2.710;2023-04-23T04:36:31;101092.31;;;15.21;100.00
54308;BME280;40208;39.778;2.710;2023-04-23T04:39:22;101053.81;;;14.79;100.00
54308;BME280;40208;39.778;2.710;2023-04-23T04:42:13;101111.44;;;14.99;100.00
54308;BME280;40208;39.778;2.710;2023-04-23T04:45:06;101009.81;;;14.38;100.00
54308;BME280;40208;39.778;2.710;2023-04-23T04:47:58;101127.78;;;15.09;100.00
54308;BME280;40208;39.778;2.710;2023-04-23T04:50:49;101000.97;;;14.22;100.00
54308;BME280;40208;39.778;2.710;2023-04-23T04:53:40;101098.53;;;14.91;100.00
54308;BME280;40208;39.778;2.710;2023-04-23T04:56:32;101106.50;;;15.07;100.00
54308;BME280;40208;39.778;2.710;2023-04-23T04:59:24;101072.75;;;14.90;100.00
54308;BME280;40208;39.778;2.710;2023-04-23T05:02:16;101116.56;;;15.18;100.00
54308;BME280;40208;39.778;2.710;2023-04-23T05:05:07;100937.81;;;14.21;100.00
54308;BME280;40208;39.778;2.710;2023-04-23T05:07:58;100992.22;;;14.50;100.00
54308;BME280;40208;39.778;2.710;2023-04-23T05:10:51;101039.59;;;14.78;100.00
54308;BME280;40208;39.778;2.710;2023-04-23T05:13:43;101057.69;;;14.73;100.00
54308;BME280;40208;39.778;2.710;2023-04-23T05:16:34;101134.41;;;15.17;100.00
54308;BME280;40208;39.778;2.710;2023-04-23T05:19:25;101128.72;;;15.23;100.00
54308;BME280;40208;39.778;2.710;2023-04-23T05:22:16;101019.81;;;14.67;100.00
54308;BME280;40208;39.778;2.710;2023-04-23T05:25:08;101128.44;;;15.28;100.00
54308;BME280;40208;39.778;2.710;2023-04-23T05:28:00;100942.31;;;14.05;100.00
54308;BME280;40208;39.778;2.710;2023-04-23T05:30:51;101113.19;;;14.84;100.00
54308;BME280;40208;39.778;2.710;2023-04-23T05:33:43;101152.22;;;15.02;100.00
54308;BME280;40208;39.778;2.710;2023-04-23T05:36:34;101084.97;;;14.64;100.00
54308;BME280;40208;39.778;2.710;2023-04-23T05:39:27;101159.41;;;14.86;100.00
54308;BME280;40208;39.778;2.710;2023-04-23T05:42:17;101035.72;;;14.05;100.00
54308;BME280;40208;39.778;2.710;2023-04-23T05:45:08;100986.91;;;13.71;100.00
54308;BME280;40208;39.778;2.710;2023-04-23T05:48:00;101171.47;;;14.77;100.00
54308;BME280;40208;39.778;2.710;2023-04-23T05:50:50;100976.25;;;13.71;100.00
54308;BME280;40208;39.778;2.710;2023-04-23T05:53:41;101023.06;;;13.92;100.00
54308;BME280;40208;39.778;2.710;2023-04-23T05:56:32;101162.91;;;14.71;100.00
54308;BME280;40208;39.778;2.710;2023-04-23T05:59:23;101115.50;;;14.42;100.00
54308;BME280;40208;39.778;2.710;2023-04-23T06:02:14;101162.25;;;14.67;100.00
54308;BME280;40208;39.778;2.710;2023-04-23T06:05:07;101167.00;;;14.62;100.00
54308;BME280;40208;39.778;2.710;2023-04-23T06:07:57;100983.84;;;13.45;100.00
54308;BME280;40208;39.778;2.710;2023-04-23T06:10:48;101163.72;;;14.57;100.00
54308;BME280;40208;39.778;2.710;2023-04-23T06:13:39;101163.09;;;14.68;100.00
54308;BME280;40208;39.778;2.710;2023-04-23T06:16:31;101161.03;;;14.73;100.00
54308;BME280;40208;39.778;2.710;2023-04-23T06:19:22;101168.69;;;14.95;100.00
54308;BME280;40208;39.778;2.710;2023-04-23T06:22:18;101009.16;;;14.19;100.00
54308;BME280;40208;39.778;2.710;2023-04-23T06:25:08;101160.97;;;15.20;100.00
54308;BME280;40208;39.778;2.710;2023-04-23T06:27:59;101000.72;;;14.27;100.00
54308;BME280;40208;39.778;2.710;2023-04-23T06:30:51;101147.59;;;15.20;100.00
54308;BME280;40208;39.778;2.710;2023-04-23T06:33:42;101062.94;;;14.75;100.00
54308;BME280;40208;39.778;2.710;2023-04-23T06:36:33;101000.78;;;14.41;100.00
54308;BME280;40208;39.778;2.710;2023-04-23T06:39:24;101022.16;;;14.57;100.00
54308;BME280;40208;39.778;2.710;2023-04-23T06:42:16;101082.19;;;15.12;100.00
54308;BME280;40208;39.778;2.710;2023-04-23T06:45:08;101033.16;;;14.97;100.00
54308;BME280;40208;39.778;2.710;2023-04-23T06:47:59;101067.50;;;15.19;100.00
54308;BME280;40208;39.778;2.710;2023-04-23T06:50:50;101170.44;;;15.86;100.00
54308;BME280;40208;39.778;2.710;2023-04-23T06:53:41;101085.19;;;15.36;100.00
54308;BME280;40208;39.778;2.710;2023-04-23T06:56:32;101128.25;;;15.61;100.00
54308;BME280;40208;39.778;2.710;2023-04-23T06:59:24;101071.34;;;15.43;100.00
54308;BME280;40208;39.778;2.710;2023-04-23T07:02:15;101028.53;;;15.15;100.00
54308;BME280;40208;39.778;2.710;2023-04-23T07:05:06;101150.28;;;15.95;100.00
54308;BME280;40208;39.778;2.710;2023-04-23T07:07:58;101090.38;;;15.67;100.00
54308;BME280;40208;39.778;2.710;2023-04-23T07:10:49;101141.69;;;16.19;100.00
54308;BME280;40208;39.778;2.710;2023-04-23T07:13:40;101179.25;;;16.46;100.00
54308;BME280;40208;39.778;2.710;2023-04-23T07:16:31;100945.56;;;15.16;100.00
54308;BME280;40208;39.778;2.710;2023-04-23T07:19:23;101186.38;;;16.74;100.00
54308;BME280;40208;39.778;2.710;2023-04-23T07:22:14;101200.63;;;16.74;100.00
54308;BME280;40208;39.778;2.710;2023-04-23T07:25:06;101176.25;;;16.79;100.00
54308;BME280;40208;39.778;2.710;2023-04-23T07:27:58;101168.75;;;16.84;100.00
54308;BME280;40208;39.778;2.710;2023-04-23T07:30:51;101165.31;;;16.97;100.00
54308;BME280;40208;39.778;2.710;2023-04-23T07:33:42;101105.25;;;16.58;100.00
54308;BME280;40208;39.778;2.710;2023-04-23T07:36:32;100968.94;;;15.84;100.00
54308;BME280;40208;39.778;2.710;2023-04-23T07:39:23;101170.03;;;17.06;100.00
54308;BME280;40208;39.778;2.710;2023-04-23T07:42:15;101112.41;;;16.71;100.00
54308;BME280;40208;39.778;2.710;2023-04-23T07:45:07;101178.22;;;17.17;100.00
54308;BME280;40208;39.778;2.710;2023-04-23T07:47:58;100877.22;;;15.54;100.00
54308;BME280;40208;39.778;2.710;2023-04-23T07:50:52;101047.34;;;16.55;100.00
54308;BME280;40208;39.778;2.710;2023-04-23T07:53:44;101031.03;;;16.45;100.00
54308;BME280;40208;39.778;2.710;2023-04-23T07:56:37;101069.97;;;16.78;100.00
54308;BME280;40208;39.778;2.710;2023-04-23T07:59:28;101064.16;;;16.71;100.00
54308;BME280;40208;39.778;2.710;2023-04-23T08:02:20;101076.25;;;16.91;100.00
54308;BME280;40208;39.778;2.710;2023-04-23T08:05:15;101031.13;;;16.71;100.00
54308;BME280;40208;39.778;2.710;2023-04-23T08:08:07;101186.41;;;17.68;100.00
54308;BME280;40208;39.778;2.710;2023-04-23T08:10:58;101177.59;;;17.66;100.00
54308;BME280;40208;39.778;2.710;2023-04-23T08:13:50;101088.03;;;17.29;100.00
54308;BME280;40208;39.778;2.710;2023-04-23T08:16:41;101026.50;;;16.87;100.00
54308;BME280;40208;39.778;2.710;2023-04-23T08:19:32;101197.75;;;17.99;100.00
54308;BME280;40208;39.778;2.710;2023-04-23T08:22:23;101187.09;;;18.10;100.00
54308;BME280;40208;39.778;2.710;2023-04-23T08:25:15;101123.91;;;17.66;100.00
54308;BME280;40208;39.778;2.710;2023-04-23T08:28:07;101190.13;;;18.18;100.00
54308;BME280;40208;39.778;2.710;2023-04-23T08:30:58;101029.31;;;17.24;100.00
54308;BME280;40208;39.778;2.710;2023-04-23T08:33:49;101067.66;;;17.52;100.00
54308;BME280;40208;39.778;2.710;2023-04-23T08:36:39;101193.63;;;18.32;100.00
54308;BME280;40208;39.778;2.710;2023-04-23T08:39:32;101158.31;;;18.12;100.00
54308;BME280;40208;39.778;2.710;2023-04-23T08:42:42;101175.19;;;18.27;100.00
54308;BME280;40208;39.778;2.710;2023-04-23T08:45:35;101194.38;;;18.47;100.00
54308;BME280;40208;39.778;2.710;2023-04-23T08:48:33;101105.78;;;17.95;100.00
54308;BME280;40208;39.778;2.710;2023-04-23T08:51:24;101188.47;;;18.54;100.00
54308;BME280;40208;39.778;2.710;2023-04-23T08:54:23;101185.09;;;18.63;100.00
54308;BME280;40208;39.778;2.710;2023-04-23T08:57:16;101150.16;;;18.51;100.00
54308;BME280;40208;39.778;2.710;2023-04-23T09:00:09;101070.75;;;18.10;100.00
54308;BME280;40208;39.778;2.710;2023-04-23T09:03:01;101194.31;;;18.85;100.00
54308;BME280;40208;39.778;2.710;2023-04-23T09:05:53;101188.72;;;18.88;100.00
54308;BME280;40208;39.778;2.710;2023-04-23T09:08:45;101040.78;;;18.03;100.00
54308;BME280;40208;39.778;2.710;2023-04-23T09:11:36;101109.34;;;18.46;100.00
54308;BME280;40208;39.778;2.710;2023-04-23T09:14:28;101082.50;;;18.33;100.00
54308;BME280;40208;39.778;2.710;2023-04-23T09:17:20;101147.53;;;18.75;100.00
54308;BME280;40208;39.778;2.710;2023-04-23T09:20:11;101207.22;;;19.17;100.00
54308;BME280;40208;39.778;2.710;2023-04-23T09:23:06;101065.19;;;18.37;100.00
54308;BME280;40208;39.778;2.710;2023-04-23T09:25:58;100932.50;;;17.53;100.00
54308;BME280;40208;39.778;2.710;2023-04-23T09:28:49;101125.38;;;18.71;100.00
54308;BME280;40208;39.778;2.710;2023-04-23T09:31:41;101182.72;;;19.09;100.00
54308;BME280;40208;39.778;2.710;2023-04-23T09:34:33;101094.31;;;18.67;100.00
54308;BME280;40208;39.778;2.710;2023-04-23T09:37:27;101152.31;;;18.95;100.00
54308;BME280;40208;39.778;2.710;2023-04-23T09:40:19;101170.81;;;19.00;100.00
54308;BME280;40208;39.778;2.710;2023-04-23T09:43:10;101191.72;;;19.20;100.00
54308;BME280;40208;39.778;2.710;2023-04-23T09:46:01;101069.66;;;18.49;100.00
54308;BME280;40208;39.778;2.710;2023-04-23T09:48:55;101213.28;;;19.32;100.00
54308;BME280;40208;39.778;2.710;2023-04-23T09:51:47;101202.34;;;19.22;100.00
54308;BME280;40208;39.778;2.710;2023-04-23T09:54:38;101107.13;;;18.63;100.00
54308;BME280;40208;39.778;2.710;2023-04-23T09:57:38;101187.88;;;19.12;100.00
54308;BME280;40208;39.778;2.710;2023-04-23T10:00:35;101040.84;;;18.27;100.00
54308;BME280;40208;39.778;2.710;2023-04-23T10:03:27;101222.38;;;19.42;100.00
54308;BME280;40208;39.778;2.710;2023-04-23T10:06:18;101169.03;;;19.12;100.00
54308;BME280;40208;39.778;2.710;2023-04-23T10:09:09;101159.59;;;19.06;100.00
54308;BME280;40208;39.778;2.710;2023-04-23T10:12:01;101223.25;;;19.42;100.00
54308;BME280;40208;39.778;2.710;2023-04-23T10:14:52;101183.28;;;19.25;100.00
54308;BME280;40208;39.778;2.710;2023-04-23T10:17:46;101145.50;;;19.02;100.00
54308;BME280;40208;39.778;2.710;2023-04-23T10:20:39;101235.06;;;19.64;100.00
54308;BME280;40208;39.778;2.710;2023-04-23T10:23:32;101189.44;;;19.38;100.00
54308;BME280;40208;39.778;2.710;2023-04-23T10:26:26;101172.22;;;19.17;100.00
54308;BME280;40208;39.778;2.710;2023-04-23T10:29:20;101120.78;;;18.97;100.00
54308;BME280;40208;39.778;2.710;2023-04-23T10:32:16;101134.56;;;19.17;100.00
54308;BME280;40208;39.778;2.710;2023-04-23T10:35:08;101164.31;;;19.51;100.00
54308;BME280;40208;39.778;2.710;2023-04-23T10:38:00;101177.44;;;19.66;100.00
54308;BME280;40208;39.778;2.710;2023-04-23T10:40:52;101231.94;;;20.05;100.00
54308;BME280;40208;39.778;2.710;2023-04-23T10:43:45;101238.78;;;20.09;100.00
54308;BME280;40208;39.778;2.710;2023-04-23T10:46:35;101229.34;;;20.04;100.00
54308;BME280;40208;39.778;2.710;2023-04-23T10:49:30;101231.56;;;20.10;100.00
54308;BME280;40208;39.778;2.710;2023-04-23T10:52:21;101231.06;;;20.16;100.00
54308;BME280;40208;39.778;2.710;2023-04-23T10:55:16;101226.19;;;20.21;100.00
54308;BME280;40208;39.778;2.710;2023-04-23T10:58:09;101219.56;;;20.25;100.00
54308;BME280;40208;39.778;2.710;2023-04-23T11:01:03;101152.53;;;19.87;100.00
54308;BME280;40208;39.778;2.710;2023-04-23T11:03:55;101184.16;;;19.96;100.00
54308;BME280;40208;39.778;2.710;2023-04-23T11:09:45;101230.72;;;20.32;100.00
54308;BME280;40208;39.778;2.710;2023-04-23T11:12:38;101235.41;;;20.41;100.00
54308;BME280;40208;39.778;2.710;2023-04-23T11:15:30;101222.78;;;20.42;100.00
54308;BME280;40208;39.778;2.710;2023-04-23T11:18:22;101195.06;;;20.40;100.00
54308;BME280;40208;39.778;2.710;2023-04-23T11:21:14;101083.84;;;19.92;100.00
54308;BME280;40208;39.778;2.710;2023-04-23T11:24:06;101072.94;;;19.94;100.00
54308;BME280;40208;39.778;2.710;2023-04-23T11:26:58;101187.25;;;20.59;100.00
54308;BME280;40208;39.778;2.710;2023-04-23T11:29:51;101236.25;;;20.98;100.00
54308;BME280;40208;39.778;2.710;2023-04-23T11:32:47;101212.44;;;20.92;100.00
54308;BME280;40208;39.778;2.710;2023-04-23T11:35:39;101232.41;;;21.12;100.00
54308;BME280;40208;39.778;2.710;2023-04-23T11:38:31;101117.84;;;20.50;100.00
54308;BME280;40208;39.778;2.710;2023-04-23T11:41:22;101229.56;;;21.13;100.00
54308;BME280;40208;39.778;2.710;2023-04-23T11:44:13;101107.84;;;20.29;100.00
54308;BME280;40208;39.778;2.710;2023-04-23T11:47:07;101224.94;;;21.04;100.00
54308;BME280;40208;39.778;2.710;2023-04-23T11:50:00;101149.97;;;20.64;100.00
54308;BME280;40208;39.778;2.710;2023-04-23T11:52:51;101206.00;;;21.15;100.00
54308;BME280;40208;39.778;2.710;2023-04-23T11:55:42;101218.28;;;21.20;100.00
54308;BME280;40208;39.778;2.710;2023-04-23T11:58:35;101098.88;;;20.63;100.00
54308;BME280;40208;39.778;2.710;2023-04-23T12:01:27;101050.69;;;20.47;100.00
54308;BME280;40208;39.778;2.710;2023-04-23T12:04:30;101191.22;;;21.42;100.00
54308;BME280;40208;39.778;2.710;2023-04-23T12:07:31;101157.16;;;21.18;100.00
54308;BME280;40208;39.778;2.710;2023-04-23T12:10:22;101067.72;;;20.59;100.00
54308;BME280;40208;39.778;2.710;2023-04-23T12:13:19;101051.06;;;20.42;100.00
54308;BME280;40208;39.778;2.710;2023-04-23T12:16:11;101165.34;;;21.28;100.00
54308;BME280;40208;39.778;2.710;2023-04-23T12:19:02;101213.31;;;21.68;100.00
54308;BME280;40208;39.778;2.710;2023-04-23T12:24:49;101208.03;;;21.88;100.00
54308;BME280;40208;39.778;2.710;2023-04-23T12:27:44;101121.50;;;21.36;100.00
54308;BME280;40208;39.778;2.710;2023-04-23T12:30:42;101191.75;;;21.78;100.00
54308;BME280;40208;39.778;2.710;2023-04-23T12:33:33;101160.34;;;21.56;100.00
54308;BME280;40208;39.778;2.710;2023-04-23T12:36:26;101185.09;;;21.82;100.00
54308;BME280;40208;39.778;2.710;2023-04-23T12:39:21;101178.13;;;21.79;100.00
54308;BME280;40208;39.778;2.710;2023-04-23T12:42:13;101145.38;;;21.52;100.00
54308;BME280;40208;39.778;2.710;2023-04-23T12:45:06;101179.03;;;21.69;100.00
54308;BME280;40208;39.778;2.710;2023-04-23T12:47:58;101111.94;;;21.32;100.00
54308;BME280;40208;39.778;2.710;2023-04-23T12:50:49;101180.72;;;21.81;100.00
54308;BME280;40208;39.778;2.710;2023-04-23T12:53:41;101075.59;;;21.15;100.00
54308;BME280;40208;39.778;2.710;2023-04-23T12:56:33;101168.16;;;21.80;100.00
54308;BME280;40208;39.778;2.710;2023-04-23T12:59:26;101034.09;;;20.95;100.00
54308;BME280;40208;39.778;2.710;2023-04-23T13:02:17;101164.28;;;21.73;100.00
54308;BME280;40208;39.778;2.710;2023-04-23T13:05:08;101168.16;;;21.80;100.00
54308;BME280;40208;39.778;2.710;2023-04-23T13:08:00;100997.59;;;20.91;100.00
54308;BME280;40208;39.778;2.710;2023-04-23T13:10:51;101154.66;;;21.80;100.00
54308;BME280;40208;39.778;2.710;2023-04-23T13:13:41;101120.44;;;21.59;100.00
54308;BME280;40208;39.778;2.710;2023-04-23T13:16:33;101092.16;;;21.43;100.00
54308;BME280;40208;39.778;2.710;2023-04-23T13:19:25;101168.09;;;21.70;100.00
54308;BME280;40208;39.778;2.710;2023-04-23T13:22:15;101093.84;;;21.23;100.00
54308;BME280;40208;39.778;2.710;2023-04-23T13:25:07;101177.84;;;21.62;100.00
54308;BME280;40208;39.778;2.710;2023-04-23T13:27:58;101076.19;;;21.18;100.00
54308;BME280;40208;39.778;2.710;2023-04-23T13:30:49;101126.00;;;21.47;100.00
54308;BME280;40208;39.778;2.710;2023-04-23T13:33:40;101103.41;;;21.27;100.00
54308;BME280;40208;39.778;2.710;2023-04-23T13:36:32;101055.09;;;20.91;100.00
54308;BME280;40208;39.778;2.710;2023-04-23T13:39:23;101130.34;;;21.38;100.00
54308;BME280;40208;39.778;2.710;2023-04-23T13:42:14;101148.28;;;21.60;100.00
54308;BME280;40208;39.778;2.710;2023-04-23T13:45:05;101081.84;;;21.15;100.00
54308;BME280;40208;39.778;2.710;2023-04-23T13:47:57;100958.81;;;20.39;100.00
54308;BME280;40208;39.778;2.710;2023-04-23T13:50:48;101119.63;;;21.48;100.00
54308;BME280;40208;39.778;2.710;2023-04-23T13:53:39;101162.63;;;21.81;100.00
54308;BME280;40208;39.778;2.710;2023-04-23T13:56:30;101047.28;;;21.09;100.00
54308;BME280;40208;39.778;2.710;2023-04-23T13:59:21;101029.38;;;21.08;100.00
54308;BME280;40208;39.778;2.710;2023-04-23T14:02:12;100875.25;;;20.06;100.00
54308;BME280;40208;39.778;2.710;2023-04-23T14:05:03;101119.38;;;21.51;100.00
54308;BME280;40208;39.778;2.710;2023-04-23T14:07:56;101049.97;;;21.09;100.00
54308;BME280;40208;39.778;2.710;2023-04-23T14:10:47;101010.53;;;20.97;100.00
54308;BME280;40208;39.778;2.710;2023-04-23T14:13:37;101031.22;;;21.08;100.00
54308;BME280;40208;39.778;2.710;2023-04-23T14:16:29;100970.66;;;20.80;100.00
54308;BME280;40208;39.778;2.710;2023-04-23T14:19:19;100952.06;;;20.77;100.00
54308;BME280;40208;39.778;2.710;2023-04-23T14:22:11;101042.69;;;21.42;100.00
54308;BME280;40208;39.778;2.710;2023-04-23T14:25:13;101079.28;;;21.77;100.00
54308;BME280;40208;39.778;2.710;2023-04-23T14:28:34;101085.13;;;21.82;100.00
54308;BME280;40208;39.778;2.710;2023-04-23T14:31:29;100997.56;;;21.33;100.00
54308;BME280;40208;39.778;2.710;2023-04-23T14:34:20;101087.03;;;21.91;100.00
54308;BME280;40208;39.778;2.710;2023-04-23T14:37:12;101075.81;;;21.96;100.00
54308;BME280;40208;39.778;2.710;2023-04-23T14:40:03;101070.53;;;21.94;100.00
54308;BME280;40208;39.778;2.710;2023-04-23T14:42:56;100945.28;;;21.34;100.00
54308;BME280;40208;39.778;2.710;2023-04-23T14:45:47;101031.78;;;21.74;100.00
54308;BME280;40208;39.778;2.710;2023-04-23T14:48:38;101057.84;;;21.85;100.00